Es ist keine erhöhte Aufmerksamkeit aufgrund des Wetters notwendig.    Es gibt keine Warnungen.

Meine Webcam more information My webcam


Donnerradar more information blitzortung!


Regenradar more information rain snow radar



METAR-Meldungen aus der Umgebung

   
EDDH - Hamburg
Aktualisierung: 01-03-2021 07:20
Nebel, Bewölkt  
Nebel, Bewölkt  
   Wind: WNW 9.3 km/h
Wind: WNW 9.3 km/h
Temperatur: 3°C
Gefühlt: 1°C
Taupunkt: 2°C
Luftfeuchte: 93%
Luftdruck: 1036 hPa
Bewölkt: Bewölkt
Sichtbarkeit: 5 km
Bewölkung: Bewölkt 300 ft
EDDH 010620Z 30005KT 4500 BR OVC003 03/02 Q1036 TEMPO 2000 BKN005
EDHL - Lübeck
Aktualisierung: 01-03-2021 07:20
Stark bewölkt  
Stark bewölkt  
   Wind: WSW 5.6 km/h
Wind: WSW 5.6 km/h
Temperatur: 4°C
Gefühlt: 3°C
Taupunkt: 4°C
Luftfeuchte: 100%
Luftdruck: 1035 hPa
Bewölkt: Stark bewölkt
Sichtbarkeit: More than 10 km
Bewölkung: Stark bewölkt 900 ft
EDHL 010620Z 25003KT 200V310 9999 BKN009 04/04 Q1035
EHBK - Amsterdam
Aktualisierung: 01-03-2021 07:25
Nebel, Bewölkt  
Nebel, Bewölkt  
   Wind: NO 13 km/h
Wind: NO 13 km/h
Temperatur: 1°C
Gefühlt: -3°C
Taupunkt: 1°C
Luftfeuchte: 100%
Luftdruck: 1033 hPa
Bewölkt: Bewölkt
Sichtbarkeit: 0 km
Bewölkung: Bewölkt
EHBK 010625Z AUTO 05007KT 020V080 0250 R03/0450N FG VV000 01/01 Q1033 TEMPO 0400
EBCV - Mons/Bergen
Aktualisierung: 01-03-2021 07:25
Nebel, Klar  
Nebel, Klar  
   Wind: variiert 3.7 km/h
Wind: variiert 3.7 km/h
Temperatur: 1°C
Taupunkt: 1°C
Luftfeuchte: 100%
Luftdruck: 1032 hPa
Bewölkt: Klar
Sichtbarkeit: 3 km
Bewölkung: Klar
EBCV 010625Z AUTO VRB02KT 2900 BR NCD 01/01 Q1032 YLO
ELLX - Luxemburg
Aktualisierung: 01-03-2021 07:20
Klar  
Klar  
   Wind: NO 22.2 km/h
Wind: NO 22.2 km/h
Temperatur: 1°C
Gefühlt: -4°C
Taupunkt: -1°C
Luftfeuchte: 87%
Luftdruck: 1030 hPa
Sichtbarkeit: More than 10 km
Bewölkung: Klar
ELLX 010620Z 05012KT CAVOK 01/M01 Q1030 NOSIG
EBOS - Oostende
Aktualisierung: 01-03-2021 07:20
Nebel, leicht bewölkt  
Nebel, leicht bewölkt  
   Wind: Osten 13 km/h
Wind: Osten 13 km/h
Temperatur: 1°C
Gefühlt: -3°C
Taupunkt: 1°C
Luftfeuchte: 100%
Luftdruck: 1033 hPa
Bewölkt: leicht bewölkt
Sichtbarkeit: 2 km
Bewölkung: leicht bewölkt 400 ft
EBOS 010620Z 08007KT 1600 BR FEW004 01/01 Q1033 TEMPO 0350 FG BKN002

Script entwickelt von  Saratoga-weather.org Angepasst für das Template von  Weerstation Leuven

Sie finden meine Wetter-Infos auch auf:

Weather Underground

Germany Weather Network

AWEKAS

WeatherlinkIP

Von mir verwendete Ausrüstung:

Wetterstation
Davis VP2

Wetterprogramm
Weather Display

WetterComputer
RaspberryPi

Anbieter
1und1

Davis VP2

Weather Display

RaspberryPi

1und1